VAS weather

Sivas Nuri Demirağ Airport
Sivas, Sivas Province, Turkey

Public forecast

Using degrees Celsius for public forecast. Weather courtesy of forecast.io.

Current aviation weather report (METAR) for Sivas Nuri Demirağ Airport

Retrieved 2020/07/06 04:50 UTC (54 minutes ago):

LTAR 060450Z 07003KT 010V120 CAVOK 18/12 Q1013 RMK RWY19 05003KT 360V110

Closest aviation forecast (TAF) to Sivas Nuri Demirağ Airport

Closest forecast is Amasya Merzifon Airport, 87.8 nm (162.7 km) NW. Retrieved 2020-07-06 00:03 UTC (6 hours ago):

TAF LTAP 052240Z 0600/0624 VRB02KT CAVOK BECMG 0604/0607 03015KT FEW040 BECMG 0614/0616 CAVOK